createdAt,value
2019-01-05T00:00:39.689Z,4.28
2019-01-05T00:03:17.524Z,4.58
2019-01-05T00:06:05.642Z,4.35
2019-01-05T00:08:41.014Z,3.27
2019-01-05T00:11:13.359Z,3.80
2019-01-05T00:13:51.619Z,3.95
2019-01-05T00:16:24.005Z,5.00
2019-01-05T00:19:14.398Z,3.42
2019-01-05T00:22:01.565Z,3.77
2019-01-05T00:24:33.606Z,4.12
2019-01-05T00:27:11.742Z,4.50
2019-01-05T00:29:46.864Z,4.78
2019-01-05T00:32:38.660Z,3.83
2019-01-05T00:35:21.094Z,3.95
2019-01-05T00:38:08.734Z,5.37
2019-01-05T00:40:53.221Z,3.92
2019-01-05T00:43:37.113Z,4.25
2019-01-05T00:46:27.255Z,3.40
2019-01-05T00:49:20.326Z,3.30
2019-01-05T00:52:02.833Z,2.95
2019-01-05T00:54:37.364Z,2.70
2019-01-05T00:57:21.253Z,3.05
2019-01-05T00:59:55.942Z,4.95
2019-01-05T01:02:33.995Z,3.30
2019-01-05T01:05:09.398Z,3.30
2019-01-05T01:07:44.287Z,3.62
2019-01-05T01:10:25.381Z,2.87
2019-01-05T01:12:57.685Z,2.90
2019-01-05T01:15:41.683Z,3.85
2019-01-05T01:18:16.656Z,3.85
2019-01-05T01:20:51.118Z,2.87
2019-01-05T01:23:32.359Z,3.00
2019-01-05T01:26:10.179Z,2.77
2019-01-05T01:28:44.615Z,2.90
2019-01-05T01:31:28.832Z,2.60
2019-01-05T01:34:16.861Z,2.98
2019-01-05T01:36:51.492Z,2.62
2019-01-05T01:39:24.223Z,2.12
2019-01-05T01:42:14.750Z,3.22
2019-01-05T01:45:03.298Z,3.05
2019-01-05T01:47:41.560Z,2.90
2019-01-05T01:50:16.526Z,3.55
2019-01-05T01:52:54.665Z,5.90
2019-01-05T01:55:29.586Z,2.92
2019-01-05T01:58:17.984Z,2.60
2019-01-05T02:00:56.408Z,3.00
2019-01-05T02:03:31.485Z,2.67
2019-01-05T02:06:13.133Z,2.45
2019-01-05T02:09:02.195Z,2.95
2019-01-05T02:11:46.857Z,3.00
2019-01-05T02:14:28.963Z,2.90
2019-01-05T02:17:24.985Z,2.60
2019-01-05T02:20:17.036Z,3.05
2019-01-05T02:23:33.100Z,3.37
2019-01-05T02:26:32.358Z,2.62
2019-01-05T02:29:28.518Z,2.70
2019-01-05T02:32:54.233Z,2.27
2019-01-05T02:35:42.924Z,2.20
2019-01-05T02:38:47.646Z,2.80
2019-01-05T02:42:05.559Z,2.05
2019-01-05T02:45:07.793Z,2.00
2019-01-05T02:48:31.552Z,2.20
2019-01-05T02:51:42.785Z,2.20
2019-01-05T02:54:48.200Z,1.70
2019-01-05T02:57:49.117Z,1.80
2019-01-05T03:01:00.824Z,1.20
2019-01-05T03:03:59.799Z,1.65
2019-01-05T03:07:07.718Z,1.80
2019-01-05T03:10:05.747Z,1.65
2019-01-05T03:13:30.553Z,1.35
2019-01-05T03:16:49.638Z,2.05
2019-01-05T03:20:01.086Z,1.55
2019-01-05T03:23:01.911Z,1.25
2019-01-05T03:26:20.612Z,1.47
2019-01-05T03:29:47.827Z,1.77
2019-01-05T03:33:16.297Z,1.70
2019-01-05T03:36:18.700Z,1.70
2019-01-05T03:39:52.080Z,5.08
2019-01-05T03:42:59.066Z,3.67
2019-01-05T03:46:06.120Z,8.50
2019-01-05T03:49:14.333Z,15.03
2019-01-05T03:52:41.859Z,2.08
2019-01-05T03:55:53.563Z,6.45
2019-01-05T03:58:32.953Z,8.35
2019-01-05T04:01:21.746Z,3.08
2019-01-05T04:05:00.503Z,2.67
2019-01-05T04:08:04.211Z,2.20
2019-01-05T04:11:23.749Z,2.05
2019-01-05T04:14:24.533Z,1.52
2019-01-05T04:17:45.901Z,2.05
2019-01-05T04:20:40.770Z,2.02
2019-01-05T04:23:51.904Z,2.02
2019-01-05T04:27:07.776Z,1.65
2019-01-05T04:30:18.368Z,1.40
2019-01-05T04:33:15.464Z,1.67
2019-01-05T04:36:12.953Z,1.87
2019-01-05T04:39:39.604Z,1.50
2019-01-05T04:42:51.947Z,1.50
2019-01-05T04:46:04.468Z,1.32
2019-01-05T04:49:09.558Z,1.90
2019-01-05T04:52:19.184Z,1.90
2019-01-05T04:55:50.873Z,2.45
2019-01-05T04:59:02.256Z,1.62
2019-01-05T05:02:37.006Z,1.40
2019-01-05T05:05:46.568Z,1.98
2019-01-05T05:08:57.574Z,1.37
2019-01-05T05:11:56.767Z,2.10
2019-01-05T05:14:56.152Z,1.92
2019-01-05T05:18:25.788Z,1.60
2019-01-05T05:21:55.437Z,3.12
2019-01-05T05:25:40.960Z,1.40
2019-01-05T05:28:39.050Z,1.75
2019-01-05T05:31:44.358Z,1.98
2019-01-05T05:34:46.931Z,1.82
2019-01-05T05:37:41.931Z,1.60
2019-01-05T05:40:57.937Z,1.57
2019-01-05T05:44:12.140Z,1.62
2019-01-05T05:47:28.377Z,1.98
2019-01-05T05:50:39.855Z,1.72
2019-01-05T05:53:49.243Z,1.72
2019-01-05T05:56:35.241Z,2.87
2019-01-05T05:59:41.200Z,2.00
2019-01-05T06:02:40.776Z,2.10
2019-01-05T06:06:06.823Z,1.92
2019-01-05T06:09:12.355Z,2.90
2019-01-05T06:12:23.644Z,5.00
2019-01-05T06:15:46.330Z,2.25
2019-01-05T06:19:08.334Z,5.25
2019-01-05T06:22:18.870Z,8.30
2019-01-05T06:25:20.291Z,3.80
2019-01-05T06:28:48.945Z,4.80
2019-01-05T06:32:05.606Z,4.55
2019-01-05T06:35:05.766Z,2.45
2019-01-05T06:41:18.076Z,4.58
2019-01-05T06:44:42.176Z,4.10
2019-01-05T06:47:48.627Z,6.37
2019-01-05T06:51:07.673Z,4.10
2019-01-05T06:54:24.859Z,8.83
2019-01-05T06:57:42.792Z,4.62
2019-01-05T07:00:57.238Z,12.63
2019-01-05T07:04:03.448Z,10.28
2019-01-05T07:07:02.753Z,9.30
2019-01-05T07:10:20.035Z,9.30
2019-01-05T07:13:42.372Z,10.38
2019-01-05T07:17:09.810Z,12.30
2019-01-05T07:20:22.101Z,11.90
2019-01-05T07:24:03.133Z,10.75
2019-01-05T07:27:32.844Z,22.65
2019-01-05T07:30:59.862Z,7.72
2019-01-05T07:34:19.186Z,15.23
2019-01-05T07:37:28.906Z,13.60
2019-01-05T07:40:30.764Z,12.55
2019-01-05T07:43:22.324Z,10.23
2019-01-05T07:46:48.142Z,15.40
2019-01-05T07:49:47.229Z,16.27
2019-01-05T07:53:07.447Z,9.55
2019-01-05T08:00:22.506Z,18.30
2019-01-05T08:03:23.562Z,10.35
2019-01-05T08:09:58.476Z,16.07
2019-01-05T08:13:13.864Z,14.87
2019-01-05T08:16:32.861Z,17.57
2019-01-05T08:20:02.968Z,18.02
2019-01-05T08:23:26.596Z,24.12
2019-01-05T08:29:33.230Z,20.10
2019-01-05T08:32:37.258Z,17.10
2019-01-05T08:35:52.093Z,14.18
2019-01-05T08:38:58.672Z,17.85
2019-01-05T08:41:56.237Z,15.25
2019-01-05T08:45:09.978Z,18.85
2019-01-05T08:48:28.456Z,16.17
2019-01-05T08:51:19.570Z,25.43
2019-01-05T08:54:53.880Z,18.60
2019-01-05T08:58:39.095Z,20.23
2019-01-05T09:01:46.291Z,23.92
2019-01-05T09:04:52.094Z,18.37
2019-01-05T09:07:51.141Z,19.50
2019-01-05T09:11:06.329Z,17.70
2019-01-05T09:14:28.362Z,36.40
2019-01-05T09:17:42.353Z,30.95
2019-01-05T09:20:43.950Z,13.95
2019-01-05T09:23:56.393Z,18.02
2019-01-05T09:27:20.687Z,31.12
2019-01-05T09:30:17.865Z,18.50
2019-01-05T09:33:07.101Z,20.45
2019-01-05T09:36:24.300Z,16.40
2019-01-05T09:39:09.923Z,14.83
2019-01-05T09:42:41.035Z,14.15
2019-01-05T09:45:41.577Z,12.85
2019-01-05T09:48:21.567Z,12.65
2019-01-05T09:51:04.874Z,17.92
2019-01-05T09:54:10.143Z,18.55
2019-01-05T09:57:20.301Z,13.00
2019-01-05T10:00:45.824Z,16.15
2019-01-05T10:04:03.896Z,16.02
2019-01-05T10:07:36.617Z,9.43
2019-01-05T10:10:39.986Z,8.13
2019-01-05T10:13:57.044Z,20.05
2019-01-05T10:17:06.321Z,19.65
2019-01-05T10:20:34.697Z,27.40
2019-01-05T10:23:37.493Z,11.10
2019-01-05T10:26:49.781Z,18.60
2019-01-05T10:30:18.677Z,22.15
2019-01-05T10:33:38.642Z,10.70
2019-01-05T10:36:59.078Z,17.77
2019-01-05T10:40:29.568Z,17.20
2019-01-05T10:43:58.667Z,13.43
2019-01-05T10:46:56.431Z,15.88
2019-01-05T10:50:18.301Z,14.33
2019-01-05T10:53:11.646Z,12.25
2019-01-05T10:56:08.959Z,11.70
2019-01-05T10:59:00.956Z,14.70
2019-01-05T11:02:30.445Z,12.30
2019-01-05T11:05:42.436Z,16.37
2019-01-05T11:08:48.903Z,13.10
2019-01-05T11:11:57.519Z,15.85
2019-01-05T11:15:29.243Z,9.18
2019-01-05T11:18:42.657Z,11.63
2019-01-05T11:22:11.023Z,6.50
2019-01-05T11:25:36.530Z,10.50
2019-01-05T11:28:36.043Z,12.37
2019-01-05T11:31:44.288Z,10.35
2019-01-05T11:34:41.127Z,9.35
2019-01-05T11:37:41.291Z,3.87
2019-01-05T11:40:31.296Z,14.10
2019-01-05T11:43:42.681Z,8.60
2019-01-05T11:47:17.029Z,8.85
2019-01-05T11:50:36.576Z,10.45
2019-01-05T11:53:37.392Z,12.33
2019-01-05T11:56:53.284Z,11.33
2019-01-05T11:59:45.035Z,9.18
2019-01-05T12:02:48.206Z,10.60
2019-01-05T12:06:11.932Z,13.22
2019-01-05T12:09:21.971Z,6.90
2019-01-05T12:12:31.472Z,6.40
2019-01-05T12:15:17.026Z,14.65
2019-01-05T12:18:02.331Z,12.88
2019-01-05T12:21:25.682Z,25.30
2019-01-05T12:25:04.522Z,10.25
2019-01-05T12:28:15.223Z,8.18
2019-01-05T12:31:40.521Z,16.17
2019-01-05T12:34:50.936Z,16.97
2019-01-05T12:38:04.134Z,10.48
2019-01-05T12:41:21.895Z,10.20
2019-01-05T12:44:31.771Z,9.33
2019-01-05T12:47:43.928Z,16.55
2019-01-05T12:51:07.722Z,14.90
2019-01-05T12:54:38.781Z,13.40
2019-01-05T12:57:45.704Z,16.23
2019-01-05T13:00:47.815Z,12.45
2019-01-05T13:04:00.757Z,9.85
2019-01-05T13:07:18.809Z,4.72
2019-01-05T13:10:41.026Z,9.95
2019-01-05T13:14:02.658Z,9.13
2019-01-05T13:16:59.096Z,7.33
2019-01-05T13:20:08.281Z,11.22
2019-01-05T13:23:22.618Z,4.45
2019-01-05T13:26:29.840Z,6.62
2019-01-05T13:29:34.874Z,5.12
2019-01-05T13:32:43.680Z,11.57
2019-01-05T13:35:44.454Z,5.37
2019-01-05T13:39:18.746Z,5.83
2019-01-05T13:42:37.138Z,10.58
2019-01-05T13:46:18.822Z,17.27
2019-01-05T13:49:41.733Z,13.30
2019-01-05T13:52:51.633Z,10.43
2019-01-05T13:56:05.205Z,13.80
2019-01-05T13:58:46.341Z,8.65
2019-01-05T14:01:36.702Z,13.30
2019-01-05T14:04:08.689Z,6.30
2019-01-05T14:06:43.723Z,8.55
2019-01-05T14:09:16.052Z,6.53
2019-01-05T14:12:04.602Z,7.35
2019-01-05T14:14:39.140Z,16.87
2019-01-05T14:17:20.142Z,7.08
2019-01-05T14:20:11.894Z,4.42
2019-01-05T14:22:45.192Z,9.43
2019-01-05T14:25:22.771Z,8.15
2019-01-05T14:28:03.754Z,11.78
2019-01-05T14:30:48.071Z,10.85
2019-01-05T14:33:20.451Z,14.58
2019-01-05T14:35:58.540Z,6.35
2019-01-05T14:38:39.142Z,12.85
2019-01-05T14:44:25.679Z,6.37
2019-01-05T14:47:13.777Z,9.13
2019-01-05T14:49:57.556Z,9.58
2019-01-05T14:52:45.648Z,6.70
2019-01-05T14:55:20.447Z,10.55
2019-01-05T14:57:52.435Z,6.35
2019-01-05T15:00:24.709Z,4.17
2019-01-05T15:03:14.912Z,5.35
2019-01-05T15:05:59.364Z,9.93
2019-01-05T15:08:34.018Z,6.03
2019-01-05T15:11:24.189Z,17.25
2019-01-05T15:14:14.057Z,6.97
2019-01-05T15:16:46.069Z,9.70
2019-01-05T15:19:34.268Z,9.43
2019-01-05T15:22:06.295Z,9.05
2019-01-05T15:24:50.496Z,12.60
2019-01-05T15:27:25.289Z,11.25
2019-01-05T15:30:03.445Z,6.30
2019-01-05T15:32:38.329Z,9.28
2019-01-05T15:35:25.428Z,8.00
2019-01-05T15:38:00.418Z,13.45
2019-01-05T15:40:47.267Z,8.68
2019-01-05T15:43:19.556Z,6.90
2019-01-05T15:46:06.518Z,8.30
2019-01-05T15:48:38.904Z,10.80
2019-01-05T15:51:16.628Z,4.20
2019-01-05T15:54:04.883Z,10.72
2019-01-05T15:56:52.869Z,6.37
2019-01-05T15:59:30.658Z,10.72
2019-01-05T16:02:19.224Z,12.30
2019-01-05T16:04:51.253Z,6.83
2019-01-05T16:07:39.713Z,13.20
2019-01-05T16:10:11.703Z,12.80
2019-01-05T16:12:49.604Z,7.55
2019-01-05T16:15:30.698Z,7.60
2019-01-05T16:18:18.676Z,11.45
2019-01-05T16:21:06.602Z,7.22
2019-01-05T16:23:44.208Z,9.13
2019-01-05T16:26:16.547Z,11.65
2019-01-05T16:28:57.428Z,6.05
2019-01-05T16:31:45.653Z,7.80
2019-01-05T16:34:17.685Z,50.43
2019-01-05T16:37:08.008Z,6.25
2019-01-05T16:39:42.523Z,13.03
2019-01-05T16:42:23.747Z,13.08
2019-01-05T16:44:58.780Z,14.13
2019-01-05T16:47:48.915Z,7.03
2019-01-05T16:50:23.807Z,11.85
2019-01-05T16:53:13.969Z,5.50
2019-01-05T16:56:01.121Z,8.33
2019-01-05T16:58:33.262Z,5.20
2019-01-05T17:01:22.682Z,12.13
2019-01-05T17:03:54.030Z,2.85
2019-01-05T17:06:42.789Z,3.52
2019-01-05T17:09:17.730Z,5.50
2019-01-05T17:11:49.768Z,5.08
2019-01-05T17:14:38.216Z,3.30
2019-01-05T17:17:16.114Z,2.65
2019-01-05T17:20:04.396Z,4.90
2019-01-05T17:22:39.453Z,3.35
2019-01-05T17:25:17.443Z,3.12
2019-01-05T17:27:55.933Z,2.90
2019-01-05T17:30:43.041Z,4.30
2019-01-05T17:33:24.177Z,2.55
2019-01-05T17:35:58.947Z,2.65
2019-01-05T17:38:30.965Z,6.45
2019-01-05T17:41:03.454Z,5.53
2019-01-05T17:43:35.416Z,1.95
2019-01-05T17:46:10.216Z,1.60
2019-01-05T17:48:42.184Z,1.35
2019-01-05T17:51:29.590Z,3.27
2019-01-05T17:54:07.206Z,2.05
2019-01-05T17:56:51.158Z,2.58
2019-01-05T17:59:39.345Z,2.65
2019-01-05T18:02:20.813Z,2.58
2019-01-05T18:04:59.193Z,2.00
2019-01-05T18:07:47.412Z,2.92
2019-01-05T18:10:31.427Z,2.25
2019-01-05T18:13:06.081Z,1.10
2019-01-05T18:18:35.018Z,3.47
2019-01-05T18:21:13.104Z,3.17
2019-01-05T18:23:54.003Z,0.90
2019-01-05T18:26:29.398Z,0.90
2019-01-05T18:29:01.405Z,0.98
2019-01-05T18:31:39.394Z,3.58
2019-01-05T18:34:16.974Z,3.45
2019-01-05T18:37:05.289Z,1.37
2019-01-05T18:39:40.111Z,2.45
2019-01-05T18:42:18.060Z,4.70
2019-01-05T18:45:05.284Z,2.47
2019-01-05T18:47:49.093Z,1.15
2019-01-05T18:50:33.198Z,2.35
2019-01-05T18:53:05.228Z,3.50
2019-01-05T18:55:53.833Z,1.87
2019-01-05T18:58:34.854Z,1.55
2019-01-05T19:01:21.958Z,2.00
2019-01-05T19:03:54.196Z,1.57
2019-01-05T19:06:41.273Z,4.00
2019-01-05T19:09:16.241Z,2.33
2019-01-05T19:11:48.210Z,2.75
2019-01-05T19:14:26.049Z,1.90
2019-01-05T19:17:07.079Z,2.65
2019-01-05T19:19:54.795Z,1.40
2019-01-05T19:22:32.889Z,1.02
2019-01-05T19:25:16.577Z,1.27
2019-01-05T19:30:31.885Z,1.90
2019-01-05T19:33:09.494Z,2.35
2019-01-05T19:35:50.826Z,4.47
2019-01-05T19:38:38.248Z,4.10
2019-01-05T19:41:19.059Z,1.50
2019-01-05T19:43:51.083Z,0.70
2019-01-05T19:46:35.604Z,1.95
2019-01-05T19:49:20.056Z,0.85
2019-01-05T19:51:54.833Z,1.67
2019-01-05T19:54:26.827Z,0.90
2019-01-05T19:57:08.176Z,1.87
2019-01-05T19:59:42.798Z,2.80
2019-01-05T20:02:23.397Z,1.98
2019-01-05T20:05:11.830Z,1.02
2019-01-05T20:07:58.686Z,2.40
2019-01-05T20:10:40.146Z,2.55
2019-01-05T20:13:28.141Z,1.00
2019-01-05T20:16:03.028Z,1.02
2019-01-05T20:18:53.932Z,3.30
2019-01-05T20:21:25.904Z,1.17
2019-01-05T20:23:57.865Z,1.40
2019-01-05T20:26:32.663Z,3.05
2019-01-05T20:29:19.524Z,3.50
2019-01-05T20:32:00.524Z,1.07
2019-01-05T20:34:35.078Z,3.42
2019-01-05T20:37:23.057Z,1.30
2019-01-05T20:40:01.354Z,1.80
2019-01-05T20:42:49.484Z,2.67
2019-01-05T20:45:21.444Z,2.05
2019-01-05T20:47:57.770Z,1.45
2019-01-05T20:50:32.876Z,1.50
2019-01-05T20:53:04.876Z,1.60
2019-01-05T20:55:53.266Z,2.40
2019-01-05T20:58:42.035Z,1.85
2019-01-05T21:01:23.316Z,1.90
2019-01-05T21:04:00.780Z,3.70
2019-01-05T21:06:32.748Z,6.08
2019-01-05T21:09:04.735Z,3.62
2019-01-05T21:11:39.672Z,2.05
2019-01-05T21:14:30.097Z,3.92
2019-01-05T21:17:11.179Z,3.15
2019-01-05T21:19:52.066Z,7.90
2019-01-05T21:22:30.226Z,13.40
2019-01-05T21:25:18.266Z,3.33
2019-01-05T21:27:56.908Z,8.00
2019-01-05T21:30:30.193Z,5.03
2019-01-05T21:33:25.675Z,2.85
2019-01-05T21:36:11.394Z,5.33
2019-01-05T21:38:49.365Z,4.20
2019-01-05T21:41:27.573Z,3.40
2019-01-05T21:44:02.614Z,3.25
2019-01-05T21:46:51.142Z,3.83
2019-01-05T21:49:39.172Z,4.25
2019-01-05T21:52:16.863Z,4.53
2019-01-05T21:54:58.058Z,6.03
2019-01-05T21:57:30.025Z,2.95
2019-01-05T22:00:18.800Z,1.95
2019-01-05T22:02:54.026Z,6.80
2019-01-05T22:05:26.019Z,4.40
2019-01-05T22:08:14.714Z,2.15
2019-01-05T22:10:46.860Z,3.62
2019-01-05T22:13:19.157Z,3.67
2019-01-05T22:15:54.838Z,1.50
2019-01-05T22:18:33.055Z,3.80
2019-01-05T22:21:21.581Z,1.92
2019-01-05T22:24:02.584Z,2.00
2019-01-05T22:26:51.492Z,1.60
2019-01-05T22:29:29.525Z,1.57
2019-01-05T22:32:11.047Z,4.30
2019-01-05T22:34:55.669Z,2.35
2019-01-05T22:37:30.348Z,1.77
2019-01-05T22:40:18.790Z,4.75
2019-01-05T22:43:07.406Z,2.35
2019-01-05T22:45:48.532Z,1.42
2019-01-05T22:48:36.118Z,5.97
2019-01-05T22:51:11.259Z,3.77
2019-01-05T22:53:52.490Z,3.52
2019-01-05T22:56:33.219Z,1.22
2019-01-05T22:59:23.716Z,4.30
2019-01-05T23:02:04.356Z,5.78
2019-01-05T23:04:52.212Z,2.33
2019-01-05T23:07:24.199Z,2.25
2019-01-05T23:10:02.232Z,1.57
2019-01-05T23:12:37.133Z,4.10
2019-01-05T23:15:15.414Z,4.90
2019-01-05T23:17:50.925Z,5.33
2019-01-05T23:20:29.033Z,2.35
2019-01-05T23:23:03.743Z,3.33
2019-01-05T23:25:52.345Z,4.20
2019-01-05T23:28:27.540Z,2.25
2019-01-05T23:30:59.712Z,3.25
2019-01-05T23:33:31.702Z,18.60
2019-01-05T23:36:03.688Z,5.53
2019-01-05T23:38:35.675Z,2.12
2019-01-05T23:41:07.930Z,3.87
2019-01-05T23:43:46.309Z,3.70
2019-01-05T23:46:24.100Z,3.17
2019-01-05T23:49:02.402Z,3.37
2019-01-05T23:51:49.806Z,6.17
2019-01-05T23:54:24.482Z,3.45
2019-01-05T23:56:56.857Z,6.08
2019-01-05T23:59:29.278Z,3.60
